createdAt,value
2023-02-03T00:00:37.027Z,1008.70
2023-02-03T00:01:37.089Z,1008.66
2023-02-03T00:02:36.997Z,1008.68
2023-02-03T00:03:36.986Z,1008.66
2023-02-03T00:04:36.955Z,1008.68
2023-02-03T00:05:36.944Z,1008.63
2023-02-03T00:06:36.928Z,1008.60
2023-02-03T00:07:36.918Z,1008.56
2023-02-03T00:08:36.901Z,1008.54
2023-02-03T00:09:36.889Z,1008.49
2023-02-03T00:10:36.890Z,1008.44
2023-02-03T00:11:36.883Z,1008.40
2023-02-03T00:12:36.847Z,1008.45
2023-02-03T00:13:36.855Z,1008.43
2023-02-03T00:14:36.819Z,1008.48
2023-02-03T00:15:36.815Z,1008.41
2023-02-03T00:16:36.909Z,1008.43
2023-02-03T00:17:36.829Z,1008.36
2023-02-03T00:18:36.774Z,1008.40
2023-02-03T00:19:36.783Z,1008.32
2023-02-03T00:20:36.754Z,1008.25
2023-02-03T00:21:36.750Z,1008.23
2023-02-03T00:22:36.726Z,1008.07
2023-02-03T00:23:36.715Z,1008.02
2023-02-03T00:24:36.700Z,1008.03
2023-02-03T00:25:36.710Z,1007.98
2023-02-03T00:26:36.682Z,1008.03
2023-02-03T00:27:36.721Z,1007.97
2023-02-03T00:28:36.647Z,1007.92
2023-02-03T00:29:36.648Z,1007.96
2023-02-03T00:30:36.614Z,1008.00
2023-02-03T00:31:36.703Z,1007.95
2023-02-03T00:32:37.631Z,1007.92
2023-02-03T00:33:36.585Z,1007.92
2023-02-03T00:34:36.575Z,1007.92
2023-02-03T00:35:36.554Z,1007.86
2023-02-03T00:36:36.565Z,1007.88
2023-02-03T00:37:36.537Z,1007.88
2023-02-03T00:38:36.595Z,1007.83
2023-02-03T00:39:36.592Z,1007.84
2023-02-03T00:40:36.484Z,1007.81
2023-02-03T00:41:36.501Z,1007.75
2023-02-03T00:42:36.469Z,1007.70
2023-02-03T00:43:36.464Z,1007.67
2023-02-03T00:44:36.447Z,1007.68
2023-02-03T00:45:36.466Z,1007.70
2023-02-03T00:46:36.439Z,1007.66
2023-02-03T00:47:36.398Z,1007.70
2023-02-03T00:48:36.381Z,1007.68
2023-02-03T00:49:36.396Z,1007.67
2023-02-03T00:50:36.365Z,1007.60
2023-02-03T00:51:36.372Z,1007.57
2023-02-03T00:52:36.331Z,1007.59
2023-02-03T00:53:36.331Z,1007.59
2023-02-03T00:54:36.337Z,1007.56
2023-02-03T00:55:36.298Z,1007.53
2023-02-03T00:56:36.298Z,1007.48
2023-02-03T00:57:36.296Z,1007.53
2023-02-03T00:58:36.250Z,1007.51
2023-02-03T00:59:36.249Z,1007.46
2023-02-03T01:00:36.240Z,1007.44
2023-02-03T01:01:36.267Z,1007.48
2023-02-03T01:02:36.306Z,1007.44
2023-02-03T01:03:36.204Z,1007.43
2023-02-03T01:04:36.289Z,1007.41
2023-02-03T01:05:36.170Z,1007.38
2023-02-03T01:06:36.166Z,1007.30
2023-02-03T01:07:36.159Z,1007.29
2023-02-03T01:08:36.132Z,1007.24
2023-02-03T01:09:36.127Z,1007.27
2023-02-03T01:10:36.096Z,1007.28
2023-02-03T01:11:36.158Z,1007.20
2023-02-03T01:12:36.077Z,1007.21
2023-02-03T01:13:36.066Z,1007.20
2023-02-03T01:14:36.064Z,1007.18
2023-02-03T01:15:36.046Z,1007.18
2023-02-03T01:16:36.085Z,1007.12
2023-02-03T01:17:36.026Z,1007.14
2023-02-03T01:18:35.996Z,1007.16
2023-02-03T01:19:35.990Z,1007.17
2023-02-03T01:20:35.976Z,1007.15
2023-02-03T01:21:35.964Z,1007.11
2023-02-03T01:22:35.976Z,1007.10
2023-02-03T01:23:35.944Z,1007.08
2023-02-03T01:24:35.923Z,1007.06
2023-02-03T01:25:35.933Z,1007.07
2023-02-03T01:26:35.895Z,1007.09
2023-02-03T01:27:36.047Z,1007.06
2023-02-03T01:28:35.865Z,1007.04
2023-02-03T01:29:35.858Z,1006.99
2023-02-03T01:30:35.873Z,1006.97
2023-02-03T01:31:35.894Z,1006.99
2023-02-03T01:32:35.823Z,1006.91
2023-02-03T01:33:35.812Z,1006.93
2023-02-03T01:34:35.804Z,1006.86
2023-02-03T01:35:35.787Z,1006.83
2023-02-03T01:36:35.807Z,1006.82
2023-02-03T01:37:35.779Z,1006.82
2023-02-03T01:38:35.748Z,1006.86
2023-02-03T01:39:35.731Z,1006.81
2023-02-03T01:40:35.725Z,1006.80
2023-02-03T01:41:35.708Z,1006.80
2023-02-03T01:42:35.703Z,1006.78
2023-02-03T01:43:35.729Z,1006.75
2023-02-03T01:44:35.666Z,1006.74
2023-02-03T01:45:35.665Z,1006.71
2023-02-03T01:46:35.636Z,1006.66
2023-02-03T01:47:35.643Z,1006.65
2023-02-03T01:48:35.611Z,1006.54
2023-02-03T01:49:35.600Z,1006.60
2023-02-03T01:50:35.586Z,1006.58
2023-02-03T01:51:35.595Z,1006.55
2023-02-03T01:52:35.568Z,1006.64
2023-02-03T01:53:35.552Z,1006.63
2023-02-03T01:54:35.539Z,1006.69
2023-02-03T01:55:35.532Z,1006.72
2023-02-03T01:56:35.514Z,1006.68
2023-02-03T01:57:35.507Z,1006.71
2023-02-03T01:58:35.487Z,1006.70
2023-02-03T01:59:35.487Z,1006.61
2023-02-03T02:00:35.461Z,1006.61
2023-02-03T02:01:35.544Z,1006.61
2023-02-03T02:02:35.534Z,1006.61
2023-02-03T02:03:35.444Z,1006.60
2023-02-03T02:04:35.420Z,1006.59
2023-02-03T02:05:35.405Z,1006.57
2023-02-03T02:06:35.397Z,1006.52
2023-02-03T02:07:35.388Z,1006.46
2023-02-03T02:08:35.371Z,1006.39
2023-02-03T02:09:35.350Z,1006.38
2023-02-03T02:10:35.342Z,1006.42
2023-02-03T02:11:35.341Z,1006.43
2023-02-03T02:12:35.356Z,1006.42
2023-02-03T02:13:35.309Z,1006.37
2023-02-03T02:14:35.291Z,1006.38
2023-02-03T02:15:35.390Z,1006.33
2023-02-03T02:16:35.266Z,1006.37
2023-02-03T02:17:35.263Z,1006.35
2023-02-03T02:18:35.266Z,1006.37
2023-02-03T02:19:35.227Z,1006.36
2023-02-03T02:20:35.222Z,1006.39
2023-02-03T02:21:35.200Z,1006.38
2023-02-03T02:22:35.206Z,1006.38
2023-02-03T02:23:35.202Z,1006.41
2023-02-03T02:24:35.153Z,1006.34
2023-02-03T02:25:35.184Z,1006.27
2023-02-03T02:26:35.133Z,1006.26
2023-02-03T02:27:35.148Z,1006.25
2023-02-03T02:28:35.115Z,1006.16
2023-02-03T02:29:35.111Z,1006.15
2023-02-03T02:30:35.135Z,1006.11
2023-02-03T02:31:35.211Z,1006.15
2023-02-03T02:32:35.077Z,1006.18
2023-02-03T02:33:35.050Z,1006.13
2023-02-03T02:34:35.030Z,1006.13
2023-02-03T02:35:35.031Z,1006.05
2023-02-03T02:36:35.021Z,1006.07
2023-02-03T02:37:35.013Z,1006.05
2023-02-03T02:38:35.002Z,1006.04
2023-02-03T02:39:34.978Z,1006.03
2023-02-03T02:40:34.957Z,1006.02
2023-02-03T02:41:34.951Z,1006.01
2023-02-03T02:42:34.938Z,1006.01
2023-02-03T02:43:34.920Z,1006.02
2023-02-03T02:44:34.908Z,1005.99
2023-02-03T02:45:34.901Z,1005.98
2023-02-03T02:46:34.931Z,1005.96
2023-02-03T02:47:34.889Z,1005.95
2023-02-03T02:48:34.857Z,1005.91
2023-02-03T02:49:34.850Z,1005.87
2023-02-03T02:50:34.836Z,1005.89
2023-02-03T02:51:34.847Z,1005.88
2023-02-03T02:52:34.817Z,1005.79
2023-02-03T02:53:34.807Z,1005.76
2023-02-03T02:54:34.798Z,1005.76
2023-02-03T02:55:34.766Z,1005.71
2023-02-03T02:56:34.777Z,1005.74
2023-02-03T02:57:34.768Z,1005.77
2023-02-03T02:58:34.735Z,1005.80
2023-02-03T02:59:34.716Z,1005.85
2023-02-03T03:00:34.718Z,1005.83
2023-02-03T03:01:34.703Z,1005.84
2023-02-03T03:02:34.691Z,1005.78
2023-02-03T03:03:34.706Z,1005.76
2023-02-03T03:04:34.750Z,1005.76
2023-02-03T03:05:34.645Z,1005.80
2023-02-03T03:06:34.632Z,1005.73
2023-02-03T03:07:34.615Z,1005.75
2023-02-03T03:08:34.623Z,1005.75
2023-02-03T03:09:34.594Z,1005.74
2023-02-03T03:10:34.600Z,1005.73
2023-02-03T03:11:34.563Z,1005.71
2023-02-03T03:12:34.558Z,1005.71
2023-02-03T03:13:34.562Z,1005.69
2023-02-03T03:14:34.521Z,1005.66
2023-02-03T03:15:34.536Z,1005.69
2023-02-03T03:16:34.517Z,1005.67
2023-02-03T03:17:34.499Z,1005.68
2023-02-03T03:18:34.492Z,1005.63
2023-02-03T03:19:34.463Z,1005.60
2023-02-03T03:20:34.463Z,1005.58
2023-02-03T03:21:34.432Z,1005.61
2023-02-03T03:22:34.431Z,1005.60
2023-02-03T03:23:34.424Z,1005.57
2023-02-03T03:24:34.416Z,1005.51
2023-02-03T03:25:34.393Z,1005.49
2023-02-03T03:26:34.382Z,1005.51
2023-02-03T03:27:34.392Z,1005.55
2023-02-03T03:28:34.388Z,1005.53
2023-02-03T03:29:34.340Z,1005.54
2023-02-03T03:30:34.391Z,1005.54
2023-02-03T03:31:34.422Z,1005.51
2023-02-03T03:32:34.320Z,1005.50
2023-02-03T03:33:34.300Z,1005.55
2023-02-03T03:34:34.290Z,1005.54
2023-02-03T03:35:34.259Z,1005.48
2023-02-03T03:36:34.258Z,1005.49
2023-02-03T03:37:34.245Z,1005.50
2023-02-03T03:38:34.259Z,1005.49
2023-02-03T03:39:34.208Z,1005.53
2023-02-03T03:40:34.197Z,1005.50
2023-02-03T03:41:34.180Z,1005.49
2023-02-03T03:42:34.180Z,1005.50
2023-02-03T03:43:34.176Z,1005.51
2023-02-03T03:44:34.158Z,1005.58
2023-02-03T03:45:34.126Z,1005.53
2023-02-03T03:46:34.193Z,1005.56
2023-02-03T03:47:34.117Z,1005.51
2023-02-03T03:48:34.119Z,1005.42
2023-02-03T03:49:34.086Z,1005.40
2023-02-03T03:50:34.065Z,1005.39
2023-02-03T03:51:34.063Z,1005.36
2023-02-03T03:52:34.044Z,1005.30
2023-02-03T03:53:34.039Z,1005.19
2023-02-03T03:54:34.031Z,1005.21
2023-02-03T03:55:34.000Z,1005.09
2023-02-03T03:56:33.993Z,1005.06
2023-02-03T03:57:34.002Z,1005.05
2023-02-03T03:58:33.983Z,1005.01
2023-02-03T03:59:33.954Z,1005.04
2023-02-03T04:00:33.946Z,1005.02
2023-02-03T04:01:34.005Z,1004.98
2023-02-03T04:02:34.040Z,1004.92
2023-02-03T04:03:33.915Z,1004.87
2023-02-03T04:04:33.910Z,1004.89
2023-02-03T04:05:33.884Z,1004.71
2023-02-03T04:06:33.864Z,1004.67
2023-02-03T04:07:33.844Z,1004.63
2023-02-03T04:08:33.851Z,1004.62
2023-02-03T04:09:33.824Z,1004.63
2023-02-03T04:10:33.814Z,1004.62
2023-02-03T04:11:33.792Z,1004.64
2023-02-03T04:12:33.794Z,1004.65
2023-02-03T04:13:33.783Z,1004.68
2023-02-03T04:14:33.780Z,1004.64
2023-02-03T04:15:33.760Z,1004.59
2023-02-03T04:16:33.775Z,1004.59
2023-02-03T04:17:33.713Z,1004.57
2023-02-03T04:18:33.742Z,1004.66
2023-02-03T04:19:33.691Z,1004.73
2023-02-03T04:20:33.702Z,1004.75
2023-02-03T04:21:33.669Z,1004.82
2023-02-03T04:22:33.669Z,1004.91
2023-02-03T04:23:33.659Z,1004.95
2023-02-03T04:24:33.638Z,1005.00
2023-02-03T04:25:33.619Z,1005.04
2023-02-03T04:26:33.606Z,1005.06
2023-02-03T04:27:33.606Z,1005.00
2023-02-03T04:28:33.593Z,1005.15
2023-02-03T04:29:33.566Z,1005.11
2023-02-03T04:30:33.595Z,1005.14
2023-02-03T04:31:33.553Z,1005.09
2023-02-03T04:32:33.542Z,1005.13
2023-02-03T04:33:33.518Z,1005.16
2023-02-03T04:34:33.505Z,1005.21
2023-02-03T04:35:33.520Z,1005.21
2023-02-03T04:36:33.468Z,1005.19
2023-02-03T04:37:33.469Z,1005.18
2023-02-03T04:38:33.457Z,1005.20
2023-02-03T04:39:33.428Z,1005.21
2023-02-03T04:40:35.006Z,1005.20
2023-02-03T04:41:33.437Z,1005.18
2023-02-03T04:42:33.399Z,1005.12
2023-02-03T04:43:33.401Z,1004.97
2023-02-03T04:44:33.365Z,1004.87
2023-02-03T04:45:33.371Z,1004.83
2023-02-03T04:46:33.368Z,1004.76
2023-02-03T04:47:33.326Z,1004.77
2023-02-03T04:48:33.325Z,1004.87
2023-02-03T04:49:33.295Z,1004.99
2023-02-03T04:50:33.295Z,1005.02
2023-02-03T04:51:33.284Z,1005.02
2023-02-03T04:52:33.273Z,1004.93
2023-02-03T04:53:33.288Z,1004.92
2023-02-03T04:54:33.233Z,1004.82
2023-02-03T04:55:33.239Z,1004.75
2023-02-03T04:56:33.211Z,1004.82
2023-02-03T04:57:33.192Z,1004.79
2023-02-03T04:58:33.183Z,1004.75
2023-02-03T04:59:33.195Z,1004.70
2023-02-03T05:00:33.164Z,1004.69
2023-02-03T05:01:33.142Z,1004.70
2023-02-03T05:02:33.137Z,1004.55
2023-02-03T05:03:33.154Z,1004.57
2023-02-03T05:04:33.115Z,1004.58
2023-02-03T05:05:33.104Z,1004.55
2023-02-03T05:06:33.070Z,1004.62
2023-02-03T05:07:33.070Z,1004.55
2023-02-03T05:08:33.055Z,1004.53
2023-02-03T05:09:33.046Z,1004.52
2023-02-03T05:10:33.020Z,1004.56
2023-02-03T05:11:33.011Z,1004.57
2023-02-03T05:12:32.998Z,1004.55
2023-02-03T05:13:32.980Z,1004.40
2023-02-03T05:14:32.991Z,1004.45
2023-02-03T05:15:32.949Z,1004.44
2023-02-03T05:16:33.017Z,1004.40
2023-02-03T05:17:32.928Z,1004.43
2023-02-03T05:18:32.919Z,1004.33
2023-02-03T05:19:32.911Z,1004.32
2023-02-03T05:20:32.900Z,1004.32
2023-02-03T05:21:32.873Z,1004.33
2023-02-03T05:22:32.871Z,1004.24
2023-02-03T05:23:34.845Z,1004.19
2023-02-03T05:24:32.857Z,1004.13
2023-02-03T05:25:32.901Z,1004.20
2023-02-03T05:26:32.817Z,1004.03
2023-02-03T05:27:32.811Z,1004.12
2023-02-03T05:28:32.821Z,1004.12
2023-02-03T05:29:32.778Z,1004.15
2023-02-03T05:30:32.805Z,1004.22
2023-02-03T05:31:32.754Z,1004.15
2023-02-03T05:32:32.741Z,1004.14
2023-02-03T05:33:32.706Z,1004.11
2023-02-03T05:34:32.718Z,1004.05
2023-02-03T05:35:32.689Z,1004.09
2023-02-03T05:36:32.687Z,1004.00
2023-02-03T05:37:32.662Z,1004.11
2023-02-03T05:38:32.659Z,1004.21
2023-02-03T05:39:32.669Z,1004.09
2023-02-03T05:40:32.631Z,1004.17
2023-02-03T05:41:32.613Z,1004.21
2023-02-03T05:42:32.616Z,1004.05
2023-02-03T05:43:32.584Z,1004.08
2023-02-03T05:44:32.597Z,1004.10
2023-02-03T05:45:32.584Z,1004.18
2023-02-03T05:46:32.543Z,1004.18
2023-02-03T05:47:32.525Z,1004.12
2023-02-03T05:48:32.526Z,1004.22
2023-02-03T05:49:32.516Z,1004.14
2023-02-03T05:50:32.484Z,1004.19
2023-02-03T05:51:32.488Z,1004.22
2023-02-03T05:52:32.474Z,1004.24
2023-02-03T05:53:32.449Z,1004.20
2023-02-03T05:54:32.467Z,1004.16
2023-02-03T05:55:32.423Z,1004.02
2023-02-03T05:56:32.412Z,1004.09
2023-02-03T05:57:32.543Z,1004.10
2023-02-03T05:58:32.384Z,1004.11
2023-02-03T05:59:32.370Z,1004.18
2023-02-03T06:00:32.364Z,1004.16
2023-02-03T06:01:32.374Z,1004.20
2023-02-03T06:02:32.332Z,1004.15
2023-02-03T06:03:32.406Z,1004.09
2023-02-03T06:04:32.368Z,1004.09
2023-02-03T06:05:32.294Z,1004.03
2023-02-03T06:06:32.306Z,1004.02
2023-02-03T06:07:32.268Z,1003.98
2023-02-03T06:08:32.263Z,1003.91
2023-02-03T06:09:32.277Z,1004.02
2023-02-03T06:10:32.235Z,1003.85
2023-02-03T06:11:32.208Z,1003.89
2023-02-03T06:12:32.221Z,1003.87
2023-02-03T06:13:32.178Z,1003.84
2023-02-03T06:14:32.180Z,1003.93
2023-02-03T06:15:32.172Z,1003.82
2023-02-03T06:16:32.218Z,1003.87
2023-02-03T06:17:32.131Z,1003.88
2023-02-03T06:18:32.127Z,1003.79
2023-02-03T06:19:32.121Z,1003.85
2023-02-03T06:20:32.099Z,1003.82
2023-02-03T06:21:32.079Z,1003.74
2023-02-03T06:22:32.081Z,1003.76
2023-02-03T06:23:32.057Z,1003.71
2023-02-03T06:24:32.065Z,1003.67
2023-02-03T06:25:32.061Z,1003.67
2023-02-03T06:26:32.021Z,1003.71
2023-02-03T06:27:32.012Z,1003.72
2023-02-03T06:28:31.998Z,1003.64
2023-02-03T06:29:31.979Z,1003.61
2023-02-03T06:30:32.030Z,1003.59
2023-02-03T06:31:32.050Z,1003.62
2023-02-03T06:32:31.939Z,1003.59
2023-02-03T06:33:31.957Z,1003.62
2023-02-03T06:34:31.920Z,1003.59
2023-02-03T06:35:31.904Z,1003.64
2023-02-03T06:36:31.895Z,1003.63
2023-02-03T06:37:31.865Z,1003.64
2023-02-03T06:38:31.858Z,1003.73
2023-02-03T06:39:31.857Z,1003.60
2023-02-03T06:40:31.877Z,1003.70
2023-02-03T06:41:31.811Z,1003.66
2023-02-03T06:42:31.808Z,1003.61
2023-02-03T06:43:31.804Z,1003.68
2023-02-03T06:44:31.793Z,1003.70
2023-02-03T06:45:31.763Z,1003.64
2023-02-03T06:46:31.843Z,1003.67
2023-02-03T06:47:31.741Z,1003.65
2023-02-03T06:48:31.737Z,1003.61
2023-02-03T06:49:31.722Z,1003.60
2023-02-03T06:50:31.716Z,1003.48
2023-02-03T06:51:31.677Z,1003.47
2023-02-03T06:52:31.673Z,1003.44
2023-02-03T06:53:31.654Z,1003.44
2023-02-03T06:54:31.655Z,1003.45
2023-02-03T06:55:31.662Z,1003.39
2023-02-03T06:56:31.651Z,1003.38
2023-02-03T06:57:31.610Z,1003.33
2023-02-03T06:58:31.595Z,1003.32
2023-02-03T06:59:31.596Z,1003.20
2023-02-03T07:00:31.883Z,1003.20
2023-02-03T07:01:31.611Z,1003.22
2023-02-03T07:02:31.617Z,1003.15
2023-02-03T07:03:31.519Z,1003.19
2023-02-03T07:04:31.535Z,1003.24
2023-02-03T07:05:31.559Z,1003.27
2023-02-03T07:06:31.519Z,1003.23
2023-02-03T07:07:31.471Z,1003.11
2023-02-03T07:08:31.464Z,1003.14
2023-02-03T07:09:31.450Z,1003.15
2023-02-03T07:10:31.504Z,1003.13
2023-02-03T07:11:31.438Z,1003.13
2023-02-03T07:12:31.427Z,1003.14
2023-02-03T07:13:31.432Z,1003.14
2023-02-03T07:14:31.389Z,1003.10
2023-02-03T07:15:31.398Z,1003.15
2023-02-03T07:16:31.380Z,1003.18
2023-02-03T07:17:31.358Z,1003.10
2023-02-03T07:18:46.328Z,1003.08
2023-02-03T07:19:32.316Z,1003.09
2023-02-03T07:20:31.382Z,1003.05
2023-02-03T07:21:31.298Z,1003.02
2023-02-03T07:22:31.268Z,1002.96
2023-02-03T07:23:31.264Z,1002.93
2023-02-03T07:24:31.259Z,1002.97
2023-02-03T07:25:31.251Z,1002.94
2023-02-03T07:26:31.227Z,1002.90
2023-02-03T07:27:31.219Z,1002.91
2023-02-03T07:28:31.197Z,1002.90
2023-02-03T07:29:31.227Z,1002.91
2023-02-03T07:30:31.444Z,1002.85
2023-02-03T07:31:31.217Z,1002.89
2023-02-03T07:32:32.878Z,1002.99
2023-02-03T07:33:31.127Z,1002.92
2023-02-03T07:34:31.126Z,1002.92
2023-02-03T07:35:31.114Z,1002.94
2023-02-03T07:36:31.091Z,1002.91
2023-02-03T07:37:31.090Z,1002.84
2023-02-03T07:38:31.083Z,1002.92
2023-02-03T07:39:31.055Z,1002.98
2023-02-03T07:40:31.108Z,1002.94
2023-02-03T07:41:31.023Z,1002.99
2023-02-03T07:42:31.015Z,1002.97
2023-02-03T07:43:31.005Z,1003.05
2023-02-03T07:44:31.085Z,1002.98
2023-02-03T07:45:30.983Z,1003.01
2023-02-03T07:46:30.987Z,1003.05
2023-02-03T07:47:30.954Z,1003.04
2023-02-03T07:48:30.930Z,1003.00
2023-02-03T07:49:30.932Z,1002.95
2023-02-03T07:50:31.052Z,1002.97
2023-02-03T07:51:30.990Z,1003.01
2023-02-03T07:52:30.877Z,1002.93
2023-02-03T07:53:30.872Z,1002.99
2023-02-03T07:54:30.866Z,1002.98
2023-02-03T07:55:30.853Z,1002.88
2023-02-03T07:56:30.824Z,1002.91
2023-02-03T07:57:30.813Z,1002.83
2023-02-03T07:58:30.802Z,1002.78
2023-02-03T07:59:30.791Z,1002.83
2023-02-03T08:00:30.990Z,1002.82
2023-02-03T08:01:30.807Z,1002.86
2023-02-03T08:02:30.752Z,1002.88
2023-02-03T08:03:30.746Z,1002.80
2023-02-03T08:04:30.734Z,1002.81
2023-02-03T08:05:30.741Z,1002.81
2023-02-03T08:06:30.692Z,1002.80
2023-02-03T08:07:30.699Z,1002.82
2023-02-03T08:08:30.669Z,1002.70
2023-02-03T08:09:30.659Z,1002.70
2023-02-03T08:10:30.965Z,1002.73
2023-02-03T08:11:30.644Z,1002.62
2023-02-03T08:12:30.615Z,1002.64
2023-02-03T08:13:30.623Z,1002.58
2023-02-03T08:14:30.623Z,1002.68
2023-02-03T08:15:30.677Z,1002.60
2023-02-03T08:16:30.630Z,1002.58
2023-02-03T08:17:30.571Z,1002.54
2023-02-03T08:18:32.613Z,1002.53
2023-02-03T08:19:30.531Z,1002.53
2023-02-03T08:20:30.991Z,1002.51
2023-02-03T08:21:30.512Z,1002.52
2023-02-03T08:22:30.500Z,1002.45
2023-02-03T08:23:30.503Z,1002.42
2023-02-03T08:24:30.461Z,1002.28
2023-02-03T08:25:30.467Z,1002.46
2023-02-03T08:26:30.435Z,1002.45
2023-02-03T08:27:30.424Z,1002.40
2023-02-03T08:28:30.440Z,1002.40
2023-02-03T08:29:30.404Z,1002.43
2023-02-03T08:30:30.629Z,1002.38
2023-02-03T08:31:30.487Z,1002.35
2023-02-03T08:32:30.378Z,1002.40
2023-02-03T08:33:30.366Z,1002.40
2023-02-03T08:34:30.334Z,1002.43
2023-02-03T08:35:30.348Z,1002.42
2023-02-03T08:36:30.307Z,1002.46
2023-02-03T08:37:30.295Z,1002.39
2023-02-03T08:38:30.301Z,1002.33
2023-02-03T08:39:30.274Z,1002.28
2023-02-03T08:40:30.692Z,1002.31
2023-02-03T08:41:30.259Z,1002.33
2023-02-03T08:42:30.225Z,1002.28
2023-02-03T08:43:30.214Z,1002.31
2023-02-03T08:44:30.213Z,1002.26
2023-02-03T08:45:30.269Z,1002.21
2023-02-03T08:46:30.183Z,1002.17
2023-02-03T08:47:30.174Z,1002.17
2023-02-03T08:48:30.161Z,1002.28
2023-02-03T08:49:30.143Z,1002.21
2023-02-03T08:50:30.623Z,1002.02
2023-02-03T08:51:30.112Z,1002.20
2023-02-03T08:52:30.101Z,1002.15
2023-02-03T08:53:30.096Z,1002.15
2023-02-03T08:54:30.068Z,1002.12
2023-02-03T08:55:30.083Z,1002.10
2023-02-03T08:56:30.040Z,1001.90
2023-02-03T08:57:30.084Z,1002.09
2023-02-03T08:58:30.029Z,1002.11
2023-02-03T08:59:30.022Z,1002.13
2023-02-03T09:00:30.393Z,1002.02
2023-02-03T09:01:30.164Z,1002.00
2023-02-03T09:02:29.958Z,1001.97
2023-02-03T09:03:29.959Z,1001.85
2023-02-03T09:04:30.000Z,1001.70
2023-02-03T09:05:29.960Z,1001.83
2023-02-03T09:06:29.935Z,1001.71
2023-02-03T09:07:29.913Z,1001.73
2023-02-03T09:08:29.891Z,1001.69
2023-02-03T09:09:29.914Z,1001.78
2023-02-03T09:10:30.176Z,1001.70
2023-02-03T09:11:29.868Z,1001.76
2023-02-03T09:12:29.839Z,1001.77
2023-02-03T09:13:29.840Z,1001.76
2023-02-03T09:14:29.837Z,1001.77
2023-02-03T09:15:29.826Z,1001.71
2023-02-03T09:16:29.814Z,1001.78
2023-02-03T09:17:29.799Z,1001.69
2023-02-03T09:18:29.756Z,1001.67
2023-02-03T09:19:29.753Z,1001.77
2023-02-03T09:20:30.151Z,1001.71
2023-02-03T09:21:36.832Z,1001.74
2023-02-03T09:22:30.715Z,1001.71
2023-02-03T09:23:29.713Z,1001.72
2023-02-03T09:24:29.689Z,1001.63
2023-02-03T09:25:29.685Z,1001.64
2023-02-03T09:26:29.680Z,1001.62
2023-02-03T09:27:29.657Z,1001.59
2023-02-03T09:28:29.634Z,1001.64
2023-02-03T09:29:29.631Z,1001.67
2023-02-03T09:30:30.086Z,1001.74
2023-02-03T09:31:29.643Z,1001.79
2023-02-03T09:32:29.585Z,1001.61
2023-02-03T09:33:29.598Z,1001.62
2023-02-03T09:34:29.556Z,1001.65
2023-02-03T09:35:29.571Z,1001.66
2023-02-03T09:36:29.535Z,1001.56
2023-02-03T09:37:29.531Z,1001.59
2023-02-03T09:38:29.529Z,1001.64
2023-02-03T09:39:29.500Z,1001.46
2023-02-03T09:40:29.836Z,1001.59
2023-02-03T09:41:29.477Z,1001.56
2023-02-03T09:42:29.464Z,1001.56
2023-02-03T09:43:29.454Z,1001.58
2023-02-03T09:44:29.433Z,1001.52
2023-02-03T09:45:29.417Z,1001.58
2023-02-03T09:46:29.412Z,1001.49
2023-02-03T09:47:29.495Z,1001.51
2023-02-03T09:48:29.383Z,1001.30
2023-02-03T09:49:29.371Z,1001.44
2023-02-03T09:50:29.805Z,1001.39
2023-02-03T09:51:29.350Z,1001.46
2023-02-03T09:52:29.319Z,1001.39
2023-02-03T09:53:29.328Z,1001.45
2023-02-03T09:54:29.305Z,1001.53
2023-02-03T09:55:29.293Z,1001.38
2023-02-03T09:56:29.289Z,1001.37
2023-02-03T09:57:29.262Z,1001.33
2023-02-03T09:58:29.255Z,1001.30
2023-02-03T09:59:29.244Z,1001.38
2023-02-03T10:00:29.705Z,1001.38
2023-02-03T10:01:29.275Z,1001.38
2023-02-03T10:02:29.240Z,1001.35
2023-02-03T10:03:29.205Z,1001.44
2023-02-03T10:04:29.177Z,1001.30
2023-02-03T10:05:29.159Z,1001.22
2023-02-03T10:06:29.155Z,1001.16
2023-02-03T10:07:29.131Z,1001.26
2023-02-03T10:08:29.121Z,1001.21
2023-02-03T10:09:29.109Z,1001.19
2023-02-03T10:10:29.463Z,1001.25
2023-02-03T10:11:29.105Z,1001.22
2023-02-03T10:12:29.067Z,1001.22
2023-02-03T10:13:29.064Z,1001.18
2023-02-03T10:14:29.045Z,1001.27
2023-02-03T10:15:29.679Z,1001.25
2023-02-03T10:16:29.090Z,1001.17
2023-02-03T10:17:29.006Z,1001.09
2023-02-03T10:18:29.011Z,1001.11
2023-02-03T10:19:28.987Z,1001.20
2023-02-03T10:20:29.266Z,1001.17
2023-02-03T10:21:28.966Z,1001.29
2023-02-03T10:22:28.947Z,1001.05
2023-02-03T10:23:28.928Z,1000.86
2023-02-03T10:24:28.909Z,1000.97
2023-02-03T10:25:28.916Z,1000.88
2023-02-03T10:26:28.896Z,1000.93
2023-02-03T10:27:28.865Z,1000.88
2023-02-03T10:28:28.868Z,1000.91
2023-02-03T10:29:28.852Z,1000.77
2023-02-03T10:30:29.321Z,1000.73
2023-02-03T10:31:28.916Z,1000.63
2023-02-03T10:32:28.810Z,1000.70
2023-02-03T10:33:28.793Z,1000.61
2023-02-03T10:34:28.779Z,1000.65
2023-02-03T10:35:28.780Z,1000.62
2023-02-03T10:36:28.753Z,1000.68
2023-02-03T10:37:30.307Z,1000.64
2023-02-03T10:38:28.732Z,1000.50
2023-02-03T10:39:28.734Z,1000.60
2023-02-03T10:40:29.000Z,1000.57
2023-02-03T10:41:28.701Z,1000.61
2023-02-03T10:42:28.678Z,1000.70
2023-02-03T10:43:28.673Z,1000.56
2023-02-03T10:44:28.652Z,1000.65
2023-02-03T10:45:28.639Z,1000.61
2023-02-03T10:46:28.680Z,1000.72
2023-02-03T10:47:28.611Z,1000.63
2023-02-03T10:48:28.595Z,1000.68
2023-02-03T10:49:28.582Z,1000.80
2023-02-03T10:50:30.034Z,1000.75
2023-02-03T10:51:28.577Z,1000.81
2023-02-03T10:52:28.547Z,1000.71
2023-02-03T10:53:28.545Z,1000.81
2023-02-03T10:54:28.518Z,1000.66
2023-02-03T10:55:28.509Z,1000.69
2023-02-03T10:56:28.505Z,1000.66
2023-02-03T10:57:28.501Z,1000.72
2023-02-03T10:58:28.464Z,1000.62
2023-02-03T10:59:28.449Z,1000.70
2023-02-03T11:00:28.725Z,1000.59
2023-02-03T11:01:28.527Z,1000.70
2023-02-03T11:02:28.458Z,1000.90
2023-02-03T11:03:28.400Z,1000.82
2023-02-03T11:04:28.415Z,1000.83
2023-02-03T11:05:28.373Z,1000.74
2023-02-03T11:06:28.376Z,1000.75
2023-02-03T11:07:28.350Z,1000.82
2023-02-03T11:08:28.330Z,1000.83
2023-02-03T11:09:28.321Z,1000.93
2023-02-03T11:10:28.580Z,1000.90
2023-02-03T11:11:28.307Z,1001.01
2023-02-03T11:12:28.278Z,1000.90
2023-02-03T11:13:28.277Z,1001.03
2023-02-03T11:14:28.248Z,1000.94
2023-02-03T11:15:28.597Z,1000.95
2023-02-03T11:16:28.241Z,1001.00
2023-02-03T11:17:28.216Z,1000.91
2023-02-03T11:18:28.197Z,1000.97
2023-02-03T11:19:28.198Z,1001.04
2023-02-03T11:20:28.547Z,1000.90
2023-02-03T11:21:28.177Z,1000.91
2023-02-03T11:22:28.155Z,1000.87
2023-02-03T11:23:28.146Z,1000.89
2023-02-03T11:24:28.127Z,1000.81
2023-02-03T11:25:28.115Z,1000.82
2023-02-03T11:26:28.124Z,1000.71
2023-02-03T11:27:28.086Z,1000.77
2023-02-03T11:28:28.072Z,1000.64
2023-02-03T11:29:28.066Z,1000.73
2023-02-03T11:30:28.479Z,1000.72
2023-02-03T11:31:28.145Z,1000.78
2023-02-03T11:32:28.031Z,1000.70
2023-02-03T11:33:28.007Z,1000.75
2023-02-03T11:34:27.995Z,1000.54
2023-02-03T11:35:27.986Z,1000.69
2023-02-03T11:36:27.984Z,1000.72
2023-02-03T11:37:27.955Z,1000.59
2023-02-03T11:38:27.947Z,1000.76
2023-02-03T11:39:27.933Z,1000.61
2023-02-03T11:40:28.320Z,1000.61
2023-02-03T11:41:27.914Z,1000.67
2023-02-03T11:42:27.894Z,1000.70
2023-02-03T11:43:27.885Z,1000.58
2023-02-03T11:44:27.872Z,1000.68
2023-02-03T11:45:27.853Z,1000.64
2023-02-03T11:46:27.894Z,1000.72
2023-02-03T11:47:27.838Z,1000.67
2023-02-03T11:48:27.819Z,1000.58
2023-02-03T11:49:27.807Z,1000.55
2023-02-03T11:50:28.143Z,1000.55
2023-02-03T11:51:27.797Z,1000.51
2023-02-03T11:52:27.761Z,1000.65
2023-02-03T11:53:27.759Z,1000.62
2023-02-03T11:54:27.745Z,1000.63
2023-02-03T11:55:27.721Z,1000.62
2023-02-03T11:56:27.737Z,1000.57
2023-02-03T11:57:27.690Z,1000.64
2023-02-03T11:58:27.691Z,1000.61
2023-02-03T11:59:27.669Z,1000.60
2023-02-03T12:00:27.981Z,1000.56
2023-02-03T12:01:27.643Z,1000.51
2023-02-03T12:02:27.654Z,1000.61
2023-02-03T12:03:27.681Z,1000.54
2023-02-03T12:04:27.680Z,1000.57
2023-02-03T12:05:27.595Z,1000.63